Terminal Aerodrome Forecast
Issued by NWS North Platte, NE

Home | Current Version | Previous Version | Text Only | Print | Product List | Glossary On
Versions: 1 2 3 4 5 6 7 8 9 10 11 12 13 14 15
039
FTUS43 KLBF 192016 AAA
TAFVTN
TAF AMD
KVTN 192016Z 1920/2018 01014G23KT 6SM -RA SCT010 BKN025
      TEMPO 1920/1924 01014G23KT 4SM -RA BKN015
     FM200000 01012KT P6SM VCSH OVC030
     FM200600 35009KT P6SM BKN050
     FM201200 34007KT P6SM SCT015 BKN025
     FM201500 04010KT P6SM BKN015=

USA.gov is the U.S. government's official web portal to all federal, state and local government web resources and services.